Etusivu
METAR-TAF:

METAR-TAF

Lentoasemat :

Južno-Sahalinskin lentoasema

Južno-Sahalinsk, Venäjä

Leveyspiiri: 46-57N, Pituuspiiri: 142-43E, korkeus merenpinnasta: 31 m

Tämänhetkinen sää

Tämä raportti tehtiin 46 minuuttia sitten, kello 21.30 UTC
Tuuli 6 kn luoteesta
Lämpötila 17°C
Kosteus 82%
Ilmanpaine 1015 hPa
Näkyvyys 10 km tai enemmän
Hajanaisia pilviä 1500 ft:n korkeudessa

METAR: UHSS 132130Z 31003MPS 9999 SCT015 17/14 Q1015 R01/70D NOSIG RMK MT OBSC QFE760/1013

Aika: 09:16 (22:16 UTC)

Sääennuste

Tämä raportti tehtiin 2 tuntia ja 16 minuuttia sitten, kello 20.00 UTC
Ennuste voimassa 13. päivästä klo 21 UTC - 15. päivään klo 03 UTC
Tuuli 6 kn luoteesta
Näkyvyys 10 km tai enemmän
Hajonneita pilviä 3000 ft:n korkeudessa, Cumulonimbus.
Tulossa
13. päivästä klo 23 UTC - 14. päivään klo 01 UTC
Tuuli 6 kn etelästä/lounaasta

TAF: UHSS 132000Z 1321/1503 32003MPS 9999 BKN030CB BECMG 1323/1401 20003MPS

Säähavainnot ja -ennusteet yli 4000 lentoasemalta (METAR- ja TAF-raportit).

Käytössä olevat sääasemat on merkitty karttaan keltaisilla ja punaisilla pisteillä.

Aseta hiiri pisteen päälle nähdäksesi sääaseman nimen.

Klikkaa sitten nähdäksesi säähavainnot ja -ennusteet.

Kartan vaihtaminen: klikkaa mustalla rastilla varustettuja vihreitä pisteitä, niin voit zoomata sisään; viivalla varustettua vihreää pistettä, niin voit zoomata ulos tai vihreitä nuolia, niin pääset viereisille kartoille.


METAR-TAF: